This is the latest recevied weather packets stored in our database for station/object NG6B-2. If no packets are shown the sender has not sent any weather packets the latest 1 day(s).
| Time | Temp. | Humidity | Pressure | Rain* | Wind** | Luminosity | Snow |
|---|---|---|---|---|---|---|---|
| 1778047529 | 14.44° C | 58% | 1007.8 hPa | 0 mm | 0 m/s | - | - |
| 1778045728 | 15.56° C | 55% | 1007.7 hPa | 0 mm | 0 m/s | - | - |
| 1778043927 | 16.11° C | 50% | 1007.3 hPa | 0 mm | 0 m/s | - | - |
| 1778042126 | 16.67° C | 48% | 1007 hPa | 0 mm | 0 m/s | - | - |
| 1778040325 | 17.22° C | 43% | 1006.6 hPa | 0 mm | 0 m/s | - | - |
| 1778038524 | 17.22° C | 42% | 1006.2 hPa | 0 mm | 0 m/s | - | - |
| 1778036723 | 17.78° C | 39% | 1005.7 hPa | 0 mm | 2.68 m/s, 276° | - | - |
| 1778034922 | 18.89° C | 37% | 1005.2 hPa | 0 mm | 2.24 m/s, 295° | - | - |
| 1778033121 | 19.44° C | 31% | 1004.6 hPa | 0 mm | 1.79 m/s, 243° | - | - |
| 1778031320 | 20.56° C | 29% | 1004.2 hPa | 0 mm | 4.02 m/s, 269° | - | - |
| 1778029519 | 21.11° C | 28% | 1003.9 hPa | 0 mm | 4.92 m/s, 266° | - | - |
| 1778027718 | 22.22° C | 26% | 1003.8 hPa | 0 mm | 3.58 m/s, 186° | - | - |
| 1778025917 | 22.22° C | 24% | 1003.6 hPa | 0 mm | 2.68 m/s, 235° | - | - |
| 1778024116 | 22.78° C | 20% | 1003.3 hPa | 0 mm | 2.68 m/s, 226° | - | - |
| 1778022315 | 23.33° C | 27% | 1003.2 hPa | 0 mm | 1.79 m/s, 255° | - | - |
| 1778020514 | 23.33° C | 28% | 1003.5 hPa | 0 mm | 3.58 m/s, 277° | - | - |
| 1778018713 | 23.33° C | 30% | 1003.8 hPa | 0 mm | 4.92 m/s, 259° | - | - |
| 1778016912 | 23.89° C | 30% | 1004.1 hPa | 0 mm | 3.58 m/s, 165° | - | - |
| 1778015111 | 23.33° C | 32% | 1004.2 hPa | 0 mm | 0.45 m/s, 174° | - | - |
| 1778013310 | 23.89° C | 31% | 1004.7 hPa | 0 mm | 3.58 m/s, 239° | - | - |
| 1778011509 | 23.33° C | 32% | 1004.8 hPa | 0 mm | 3.13 m/s, 259° | - | - |
| 1778009708 | 22.22° C | 36% | 1004.9 hPa | 0 mm | 1.34 m/s, 156° | - | - |
| 1778007907 | 21.11° C | 50% | 1005.2 hPa | 0 mm | 1.34 m/s, 297° | - | - |
| 1778006106 | 20° C | 53% | 1005.7 hPa | 0 mm | 1.34 m/s, 212° | - | - |
* Rain latest hour (hover to see other rain measurements)
** Current wind speed in m/s (hover to see current wind gust speed)